createdAt,value
2023-05-14T00:01:29.332Z,16.10
2023-05-14T00:03:56.239Z,16.10
2023-05-14T00:06:23.072Z,16.10
2023-05-14T00:08:49.836Z,16.10
2023-05-14T00:11:16.690Z,16.10
2023-05-14T00:13:43.509Z,16.00
2023-05-14T00:16:10.427Z,16.00
2023-05-14T00:18:37.275Z,16.00
2023-05-14T00:21:04.188Z,16.10
2023-05-14T00:23:30.972Z,17.00
2023-05-14T00:25:57.670Z,16.20
2023-05-14T00:28:24.404Z,16.20
2023-05-14T00:30:51.948Z,16.20
2023-05-14T00:33:18.950Z,16.20
2023-05-14T00:35:45.838Z,16.20
2023-05-14T00:38:17.097Z,16.10
2023-05-14T00:40:45.919Z,16.10
2023-05-14T00:43:12.759Z,16.00
2023-05-14T00:45:39.588Z,16.00
2023-05-14T00:48:06.922Z,16.00
2023-05-14T00:50:34.731Z,16.00
2023-05-14T00:53:01.529Z,16.10
2023-05-14T00:55:30.873Z,16.20
2023-05-14T00:57:59.024Z,16.00
2023-05-14T01:00:26.202Z,16.00
2023-05-14T01:02:53.111Z,16.00
2023-05-14T01:05:20.146Z,16.00
2023-05-14T01:08:02.017Z,16.00
2023-05-14T01:10:38.784Z,15.90
2023-05-14T01:13:12.197Z,15.90
2023-05-14T01:15:40.500Z,15.90
2023-05-14T01:18:08.295Z,15.90
2023-05-14T01:20:36.049Z,15.90
2023-05-14T01:23:03.960Z,15.90
2023-05-14T01:25:31.679Z,15.80
2023-05-14T01:28:04.270Z,15.80
2023-05-14T01:30:57.099Z,15.90
2023-05-14T01:33:26.269Z,15.80
2023-05-14T01:35:54.790Z,15.90
2023-05-14T01:38:23.354Z,15.80
2023-05-14T01:40:50.908Z,15.80
2023-05-14T01:43:17.985Z,15.80
2023-05-14T01:45:44.889Z,15.80
2023-05-14T01:48:11.944Z,15.80
2023-05-14T01:50:38.831Z,15.80
2023-05-14T01:53:05.668Z,15.60
2023-05-14T01:55:32.505Z,15.60
2023-05-14T01:57:59.334Z,15.60
2023-05-14T02:00:26.536Z,15.60
2023-05-14T02:02:53.680Z,15.70
2023-05-14T02:05:21.198Z,15.70
2023-05-14T02:07:48.140Z,15.70
2023-05-14T02:10:14.916Z,15.70
2023-05-14T02:12:41.794Z,15.70
2023-05-14T02:15:10.946Z,15.60
2023-05-14T02:17:38.567Z,15.60
2023-05-14T02:20:06.035Z,15.60
2023-05-14T02:22:32.854Z,15.60
2023-05-14T02:24:59.610Z,15.60
2023-05-14T02:27:26.399Z,15.60
2023-05-14T02:29:53.553Z,15.60
2023-05-14T02:32:20.421Z,15.60
2023-05-14T02:34:47.264Z,15.60
2023-05-14T02:37:14.295Z,15.60
2023-05-14T02:39:41.063Z,15.70
2023-05-14T02:42:07.862Z,15.70
2023-05-14T02:44:34.612Z,15.70
2023-05-14T02:47:01.357Z,15.70
2023-05-14T02:49:28.178Z,15.70
2023-05-14T02:51:55.031Z,15.70
2023-05-14T02:54:21.853Z,15.70
2023-05-14T02:56:48.666Z,15.70
2023-05-14T02:59:15.492Z,15.70
2023-05-14T03:01:42.592Z,15.70
2023-05-14T03:04:10.080Z,15.70
2023-05-14T03:06:36.957Z,15.70
2023-05-14T03:09:03.805Z,15.70
2023-05-14T03:11:30.673Z,15.80
2023-05-14T03:13:57.419Z,15.90
2023-05-14T03:16:24.115Z,15.80
2023-05-14T03:18:51.385Z,15.70
2023-05-14T03:21:18.317Z,15.70
2023-05-14T03:23:45.156Z,15.70
2023-05-14T03:26:11.933Z,15.70
2023-05-14T03:28:38.813Z,15.70
2023-05-14T03:31:05.690Z,15.70
2023-05-14T03:33:32.479Z,15.60
2023-05-14T03:35:59.242Z,15.80
2023-05-14T03:38:26.007Z,15.60
2023-05-14T03:40:52.772Z,15.60
2023-05-14T03:43:19.492Z,15.60
2023-05-14T03:45:46.314Z,15.70
2023-05-14T03:48:13.177Z,15.60
2023-05-14T03:50:40.004Z,15.50
2023-05-14T03:53:06.717Z,15.70
2023-05-14T03:55:33.569Z,15.60
2023-05-14T03:58:00.631Z,15.60
2023-05-14T04:00:27.525Z,15.60
2023-05-14T04:02:54.549Z,15.60
2023-05-14T04:05:21.427Z,15.60
2023-05-14T04:07:48.177Z,15.70
2023-05-14T04:10:15.208Z,15.70
2023-05-14T04:12:42.063Z,15.60
2023-05-14T04:15:09.626Z,15.60
2023-05-14T04:17:36.440Z,15.60
2023-05-14T04:20:03.598Z,15.60
2023-05-14T04:22:30.404Z,15.70
2023-05-14T04:24:57.189Z,15.80
2023-05-14T04:27:24.062Z,15.70
2023-05-14T04:29:50.904Z,15.60
2023-05-14T04:32:18.333Z,15.60
2023-05-14T04:34:46.845Z,15.60
2023-05-14T04:37:14.060Z,15.60
2023-05-14T04:39:41.095Z,15.50
2023-05-14T04:42:08.281Z,15.50
2023-05-14T04:44:36.370Z,15.50
2023-05-14T04:47:03.618Z,15.50
2023-05-14T04:49:31.361Z,15.40
2023-05-14T04:51:58.109Z,15.40
2023-05-14T04:54:24.927Z,15.40
2023-05-14T04:56:51.760Z,15.40
2023-05-14T04:59:18.505Z,15.30
2023-05-14T05:01:45.940Z,15.40
2023-05-14T05:04:13.071Z,15.40
2023-05-14T05:06:40.116Z,15.40
2023-05-14T05:09:08.723Z,15.30
2023-05-14T05:11:35.584Z,15.30
2023-05-14T05:14:02.360Z,15.30
2023-05-14T05:16:29.134Z,15.30
2023-05-14T05:18:56.189Z,15.20
2023-05-14T05:21:23.079Z,15.40
2023-05-14T05:23:49.842Z,15.40
2023-05-14T05:26:16.734Z,15.40
2023-05-14T05:28:43.573Z,15.40
2023-05-14T05:31:10.514Z,15.40
2023-05-14T05:33:37.383Z,15.40
2023-05-14T05:36:04.275Z,15.50
2023-05-14T05:38:31.074Z,15.40
2023-05-14T05:40:57.827Z,15.40
2023-05-14T05:43:24.794Z,15.40
2023-05-14T05:45:51.579Z,15.40
2023-05-14T05:48:18.529Z,15.40
2023-05-14T05:50:49.049Z,15.50
2023-05-14T05:53:19.043Z,15.50
2023-05-14T05:55:45.911Z,15.50
2023-05-14T05:58:15.715Z,15.50
2023-05-14T06:00:42.588Z,15.50
2023-05-14T06:03:09.436Z,15.60
2023-05-14T06:05:36.402Z,15.60
2023-05-14T06:08:03.525Z,15.60
2023-05-14T06:10:30.272Z,15.60
2023-05-14T06:12:57.275Z,15.60
2023-05-14T06:15:24.156Z,15.70
2023-05-14T06:17:51.053Z,15.70
2023-05-14T06:20:17.890Z,15.70
2023-05-14T06:22:44.815Z,15.70
2023-05-14T06:25:11.806Z,15.70
2023-05-14T06:27:38.670Z,15.80
2023-05-14T06:30:07.092Z,15.80
2023-05-14T06:32:33.834Z,15.80
2023-05-14T06:35:00.587Z,15.80
2023-05-14T06:37:27.351Z,15.80
2023-05-14T06:39:55.746Z,15.90
2023-05-14T06:42:23.955Z,15.90
2023-05-14T06:44:50.923Z,15.90
2023-05-14T06:47:17.678Z,16.00
2023-05-14T06:49:44.530Z,16.00
2023-05-14T06:52:11.298Z,16.00
2023-05-14T06:54:38.140Z,16.00
2023-05-14T06:57:05.018Z,16.10
2023-05-14T06:59:31.988Z,16.10
2023-05-14T07:01:58.924Z,16.10
2023-05-14T07:04:25.885Z,16.30
2023-05-14T07:06:52.633Z,16.20
2023-05-14T07:09:20.057Z,16.30
2023-05-14T07:11:46.837Z,16.30
2023-05-14T07:14:13.675Z,16.30
2023-05-14T07:16:41.661Z,16.30
2023-05-14T07:19:08.772Z,16.30
2023-05-14T07:21:36.176Z,16.50
2023-05-14T07:24:02.967Z,16.50
2023-05-14T07:26:30.489Z,16.60
2023-05-14T07:28:57.535Z,16.60
2023-05-14T07:31:24.357Z,16.50
2023-05-14T07:33:51.237Z,16.60
2023-05-14T07:36:17.969Z,16.70
2023-05-14T07:38:44.766Z,16.70
2023-05-14T07:41:12.277Z,16.80
2023-05-14T07:43:40.483Z,16.80
2023-05-14T07:46:07.305Z,16.80
2023-05-14T07:48:34.054Z,16.90
2023-05-14T07:51:00.897Z,16.90
2023-05-14T07:53:27.622Z,17.00
2023-05-14T07:55:54.825Z,17.00
2023-05-14T07:58:21.822Z,17.10
2023-05-14T08:00:48.654Z,17.10
2023-05-14T08:03:15.563Z,17.10
2023-05-14T08:05:42.361Z,17.20
2023-05-14T08:08:09.466Z,17.20
2023-05-14T08:10:36.534Z,17.20
2023-05-14T08:13:03.393Z,17.20
2023-05-14T08:15:30.399Z,17.20
2023-05-14T08:17:58.940Z,17.20
2023-05-14T08:20:26.072Z,17.30
2023-05-14T08:22:53.115Z,17.40
2023-05-14T08:25:19.869Z,17.40
2023-05-14T08:27:46.888Z,17.50
2023-05-14T08:30:14.096Z,17.50
2023-05-14T08:32:40.928Z,17.40
2023-05-14T08:35:08.323Z,17.40
2023-05-14T08:37:35.069Z,17.40
2023-05-14T08:40:02.198Z,17.40
2023-05-14T08:42:29.383Z,17.40
2023-05-14T08:45:09.713Z,17.40
2023-05-14T08:47:37.358Z,17.40
2023-05-14T08:50:06.495Z,17.40
2023-05-14T08:52:34.618Z,17.40
2023-05-14T08:55:04.946Z,17.40
2023-05-14T08:57:33.483Z,17.40
2023-05-14T09:00:01.573Z,17.40
2023-05-14T09:02:30.304Z,17.40
2023-05-14T09:05:01.519Z,17.40
2023-05-14T09:07:28.446Z,17.40
2023-05-14T09:09:55.716Z,17.40
2023-05-14T09:12:22.794Z,17.40
2023-05-14T09:14:50.592Z,17.50
2023-05-14T09:17:18.450Z,17.50
2023-05-14T09:19:52.960Z,17.50
2023-05-14T09:22:20.492Z,17.50
2023-05-14T09:25:01.334Z,17.50
2023-05-14T09:27:31.202Z,17.50
2023-05-14T09:30:13.706Z,17.50
2023-05-14T09:32:46.252Z,17.60
2023-05-14T09:35:14.756Z,17.60
2023-05-14T09:37:43.472Z,17.60
2023-05-14T09:40:12.001Z,17.60
2023-05-14T09:42:38.925Z,17.70
2023-05-14T09:45:07.901Z,17.80
2023-05-14T09:47:34.812Z,17.80
2023-05-14T09:50:01.703Z,17.80
2023-05-14T09:52:28.497Z,17.80
2023-05-14T09:54:55.450Z,17.80
2023-05-14T09:57:22.403Z,17.80
2023-05-14T09:59:49.139Z,17.90
2023-05-14T10:02:21.710Z,17.90
2023-05-14T10:04:51.433Z,17.90
2023-05-14T10:07:24.317Z,17.90
2023-05-14T10:10:02.698Z,17.90
2023-05-14T10:12:34.033Z,17.90
2023-05-14T10:15:04.822Z,18.00
2023-05-14T10:17:34.643Z,18.10
2023-05-14T10:20:05.319Z,18.20
2023-05-14T10:22:35.232Z,18.30
2023-05-14T10:25:04.028Z,18.30
2023-05-14T10:27:31.324Z,18.30
2023-05-14T10:29:58.381Z,18.40
2023-05-14T10:32:26.518Z,18.50
2023-05-14T10:34:53.887Z,18.40
2023-05-14T10:37:26.046Z,18.40
2023-05-14T10:40:06.215Z,18.40
2023-05-14T10:42:35.914Z,18.30
2023-05-14T10:45:07.535Z,18.40
2023-05-14T10:47:40.262Z,18.50
2023-05-14T10:50:09.028Z,18.60
2023-05-14T10:52:36.011Z,18.60
2023-05-14T10:55:10.810Z,18.70
2023-05-14T10:57:39.871Z,18.70
2023-05-14T11:00:14.118Z,18.70
2023-05-14T11:02:45.087Z,18.70
2023-05-14T11:05:16.867Z,18.70
2023-05-14T11:07:46.157Z,18.70
2023-05-14T11:10:21.495Z,18.70
2023-05-14T11:12:50.896Z,18.70
2023-05-14T11:15:22.371Z,18.70
2023-05-14T11:17:50.950Z,18.70
2023-05-14T11:20:18.701Z,18.70
2023-05-14T11:22:47.054Z,18.70
2023-05-14T11:25:15.153Z,18.80
2023-05-14T11:27:43.951Z,18.90
2023-05-14T11:30:18.874Z,19.00
2023-05-14T11:32:48.185Z,19.00
2023-05-14T11:35:15.799Z,19.00
2023-05-14T11:37:43.410Z,19.20
2023-05-14T11:40:16.799Z,19.20
2023-05-14T11:42:43.775Z,19.30
2023-05-14T11:45:23.712Z,19.30
2023-05-14T11:47:50.577Z,19.30
2023-05-14T11:50:17.503Z,19.30
2023-05-14T11:52:44.282Z,19.30
2023-05-14T11:55:12.494Z,19.30
2023-05-14T11:57:40.932Z,19.30
2023-05-14T12:00:21.611Z,19.30
2023-05-14T12:02:49.850Z,19.40
2023-05-14T12:05:16.949Z,19.40
2023-05-14T12:07:48.058Z,19.40
2023-05-14T12:10:15.527Z,19.40
2023-05-14T12:12:47.231Z,19.40
2023-05-14T12:15:16.397Z,19.50
2023-05-14T12:17:43.241Z,19.50
2023-05-14T12:20:11.708Z,19.50
2023-05-14T12:22:38.841Z,19.40
2023-05-14T12:25:15.824Z,19.40
2023-05-14T12:27:44.973Z,19.30
2023-05-14T12:30:21.307Z,19.50
2023-05-14T12:32:51.642Z,19.40
2023-05-14T12:35:18.999Z,19.40
2023-05-14T12:37:46.074Z,19.40
2023-05-14T12:40:13.233Z,19.40
2023-05-14T12:42:40.207Z,19.40
2023-05-14T12:45:08.640Z,19.40
2023-05-14T12:47:36.555Z,19.50
2023-05-14T12:50:04.209Z,19.60
2023-05-14T12:55:01.519Z,19.70
2023-05-14T12:57:29.826Z,19.70
2023-05-14T12:59:57.407Z,19.70
2023-05-14T13:02:24.423Z,19.60
2023-05-14T13:04:51.194Z,19.60
2023-05-14T13:07:17.990Z,19.60
2023-05-14T13:09:44.861Z,19.60
2023-05-14T13:12:11.732Z,19.60
2023-05-14T13:14:38.545Z,19.50
2023-05-14T13:17:06.043Z,19.50
2023-05-14T13:19:32.868Z,19.50
2023-05-14T13:21:59.694Z,19.50
2023-05-14T13:24:26.541Z,19.40
2023-05-14T13:26:53.361Z,19.50
2023-05-14T13:29:20.369Z,19.60
2023-05-14T13:31:47.351Z,19.60
2023-05-14T13:34:14.561Z,19.50
2023-05-14T13:36:43.593Z,19.40
2023-05-14T13:39:14.542Z,19.40
2023-05-14T13:41:41.590Z,19.30
2023-05-14T13:44:08.389Z,19.20
2023-05-14T13:46:35.286Z,19.30
2023-05-14T13:49:02.344Z,19.30
2023-05-14T13:51:29.181Z,19.40
2023-05-14T13:53:56.246Z,19.50
2023-05-14T13:56:23.352Z,19.60
2023-05-14T13:58:50.292Z,19.70
2023-05-14T14:01:17.065Z,19.60
2023-05-14T14:03:43.833Z,19.60
2023-05-14T14:06:10.886Z,19.60
2023-05-14T14:08:37.702Z,19.60
2023-05-14T14:11:04.779Z,19.60
2023-05-14T14:13:31.611Z,19.60
2023-05-14T14:15:58.444Z,19.60
2023-05-14T14:18:25.379Z,19.70
2023-05-14T14:20:52.626Z,19.70
2023-05-14T14:23:19.766Z,19.80
2023-05-14T14:25:46.716Z,19.90
2023-05-14T14:28:13.766Z,19.80
2023-05-14T14:30:41.068Z,19.90
2023-05-14T14:33:08.111Z,19.80
2023-05-14T14:35:35.841Z,19.80
2023-05-14T14:38:02.786Z,19.70
2023-05-14T14:40:29.845Z,19.70
2023-05-14T14:42:56.712Z,19.50
2023-05-14T14:45:23.761Z,19.60
2023-05-14T14:47:50.959Z,19.50
2023-05-14T14:50:18.300Z,19.40
2023-05-14T14:52:46.058Z,19.40
2023-05-14T14:55:13.127Z,19.50
2023-05-14T14:57:39.991Z,19.50
2023-05-14T15:00:07.477Z,19.50
2023-05-14T15:02:34.859Z,19.50
2023-05-14T15:05:01.903Z,19.50
2023-05-14T15:07:32.813Z,19.50
2023-05-14T15:10:00.195Z,19.50
2023-05-14T15:12:27.089Z,19.60
2023-05-14T15:14:53.882Z,19.70
2023-05-14T15:17:20.684Z,19.70
2023-05-14T15:19:47.658Z,19.60
2023-05-14T15:22:14.586Z,19.50
2023-05-14T15:24:41.307Z,19.50
2023-05-14T15:27:12.814Z,19.60
2023-05-14T15:29:39.703Z,19.60
2023-05-14T15:32:07.237Z,19.60
2023-05-14T15:34:34.118Z,19.60
2023-05-14T15:37:00.900Z,19.50
2023-05-14T15:39:29.988Z,19.50
2023-05-14T15:41:56.907Z,19.50
2023-05-14T15:44:23.765Z,19.50
2023-05-14T15:46:50.773Z,19.50
2023-05-14T15:49:17.641Z,19.50
2023-05-14T15:51:44.414Z,19.50
2023-05-14T15:54:11.319Z,19.40
2023-05-14T15:56:38.153Z,19.40
2023-05-14T15:59:04.845Z,19.40
2023-05-14T16:01:31.942Z,19.30
2023-05-14T16:03:58.782Z,19.30
2023-05-14T16:06:26.209Z,19.20
2023-05-14T16:08:53.233Z,19.20
2023-05-14T16:11:20.078Z,19.20
2023-05-14T16:13:46.997Z,19.20
2023-05-14T16:16:13.775Z,19.20
2023-05-14T16:18:42.766Z,19.30
2023-05-14T16:21:09.734Z,19.30
2023-05-14T16:23:36.808Z,19.30
2023-05-14T16:26:03.586Z,19.30
2023-05-14T16:28:30.918Z,19.20
2023-05-14T16:30:57.773Z,19.20
2023-05-14T16:33:24.689Z,19.20
2023-05-14T16:35:51.654Z,19.10
2023-05-14T16:38:19.306Z,19.10
2023-05-14T16:40:46.054Z,19.10
2023-05-14T16:43:12.972Z,19.10
2023-05-14T16:45:40.502Z,19.00
2023-05-14T16:48:07.581Z,19.00
2023-05-14T16:50:34.487Z,19.00
2023-05-14T16:53:01.250Z,19.00
2023-05-14T16:55:28.137Z,20.60
2023-05-14T16:57:54.995Z,19.10
2023-05-14T17:00:21.949Z,19.10
2023-05-14T17:02:49.901Z,19.10
2023-05-14T17:05:17.098Z,19.10
2023-05-14T17:07:43.981Z,19.10
2023-05-14T17:10:11.087Z,19.10
2023-05-14T17:12:38.015Z,17.60
2023-05-14T17:15:07.308Z,19.10
2023-05-14T17:17:34.552Z,20.50
2023-05-14T17:20:01.349Z,19.10
2023-05-14T17:22:28.137Z,19.10
2023-05-14T17:24:54.916Z,19.10
2023-05-14T17:27:21.816Z,19.10
2023-05-14T17:29:51.085Z,19.10
2023-05-14T17:32:18.419Z,19.10
2023-05-14T17:34:45.226Z,19.10
2023-05-14T17:37:12.271Z,19.00
2023-05-14T17:39:39.072Z,19.10
2023-05-14T17:42:06.687Z,19.10
2023-05-14T17:44:33.492Z,19.00
2023-05-14T17:47:00.787Z,19.10
2023-05-14T17:49:27.740Z,19.00
2023-05-14T17:51:54.528Z,19.00
2023-05-14T17:54:21.350Z,19.00
2023-05-14T17:56:50.944Z,19.00
2023-05-14T17:59:17.863Z,18.90
2023-05-14T18:01:44.642Z,18.90
2023-05-14T18:04:11.578Z,18.90
2023-05-14T18:06:39.017Z,18.90
2023-05-14T18:09:05.882Z,18.90
2023-05-14T18:11:34.020Z,18.90
2023-05-14T18:14:01.460Z,18.90
2023-05-14T18:16:31.536Z,18.90
2023-05-14T18:18:58.525Z,19.40
2023-05-14T18:21:25.588Z,18.80
2023-05-14T18:23:52.359Z,18.80
2023-05-14T18:26:19.148Z,18.90
2023-05-14T18:28:46.015Z,18.80
2023-05-14T18:31:12.824Z,18.80
2023-05-14T18:33:39.619Z,18.80
2023-05-14T18:36:06.801Z,18.80
2023-05-14T18:38:33.584Z,18.80
2023-05-14T18:41:00.447Z,18.80
2023-05-14T18:43:27.219Z,18.80
2023-05-14T18:45:54.202Z,18.80
2023-05-14T18:48:21.050Z,18.80
2023-05-14T18:50:47.777Z,18.80
2023-05-14T18:53:14.815Z,18.70
2023-05-14T18:55:41.776Z,18.70
2023-05-14T18:58:08.579Z,18.70
2023-05-14T19:00:35.402Z,18.60
2023-05-14T19:03:02.584Z,18.50
2023-05-14T19:05:29.412Z,18.50
2023-05-14T19:07:57.048Z,18.50
2023-05-14T19:10:24.128Z,18.40
2023-05-14T19:12:50.947Z,18.40
2023-05-14T19:15:17.833Z,18.40
2023-05-14T19:17:44.975Z,18.30
2023-05-14T19:20:12.431Z,18.30
2023-05-14T19:22:39.238Z,18.20
2023-05-14T19:25:07.864Z,18.20
2023-05-14T19:27:37.302Z,18.20
2023-05-14T19:30:05.139Z,18.10
2023-05-14T19:32:31.890Z,18.10
2023-05-14T19:34:58.705Z,18.00
2023-05-14T19:37:26.214Z,17.90
2023-05-14T19:39:52.994Z,17.90
2023-05-14T19:42:19.813Z,17.80
2023-05-14T19:44:46.645Z,17.80
2023-05-14T19:47:13.930Z,17.80
2023-05-14T19:49:40.827Z,17.70
2023-05-14T19:52:07.787Z,17.70
2023-05-14T19:54:34.556Z,17.70
2023-05-14T19:57:01.370Z,17.60
2023-05-14T19:59:29.789Z,17.50
2023-05-14T20:01:57.320Z,17.50
2023-05-14T20:04:26.025Z,17.50
2023-05-14T20:06:52.830Z,17.50
2023-05-14T20:09:20.094Z,17.50
2023-05-14T20:11:47.002Z,17.60
2023-05-14T20:14:14.140Z,17.50
2023-05-14T20:16:41.710Z,17.50
2023-05-14T20:19:08.694Z,17.50
2023-05-14T20:21:35.738Z,17.50
2023-05-14T20:24:02.818Z,17.50
2023-05-14T20:26:29.605Z,17.50
2023-05-14T20:28:56.410Z,17.50
2023-05-14T20:31:23.452Z,17.50
2023-05-14T20:33:50.801Z,17.50
2023-05-14T20:36:17.756Z,17.50
2023-05-14T20:38:44.484Z,17.40
2023-05-14T20:41:11.435Z,17.40
2023-05-14T20:43:38.269Z,17.40
2023-05-14T20:46:07.237Z,17.40
2023-05-14T20:48:34.127Z,17.30
2023-05-14T20:51:01.708Z,17.30
2023-05-14T20:53:28.799Z,17.30
2023-05-14T20:55:55.683Z,17.20
2023-05-14T20:58:22.490Z,17.20
2023-05-14T21:00:49.368Z,17.10
2023-05-14T21:03:16.320Z,17.10
2023-05-14T21:05:43.813Z,17.10
2023-05-14T21:08:11.038Z,17.20
2023-05-14T21:10:37.821Z,17.10
2023-05-14T21:13:04.622Z,17.10
2023-05-14T21:15:31.385Z,17.10
2023-05-14T21:17:58.233Z,17.00
2023-05-14T21:20:25.053Z,17.10
2023-05-14T21:22:51.766Z,17.10
2023-05-14T21:25:18.701Z,17.10
2023-05-14T21:27:45.468Z,17.20
2023-05-14T21:30:12.911Z,17.20
2023-05-14T21:32:39.722Z,17.10
2023-05-14T21:35:07.018Z,17.10
2023-05-14T21:37:33.851Z,17.10
2023-05-14T21:40:00.739Z,17.00
2023-05-14T21:42:27.662Z,17.10
2023-05-14T21:44:54.438Z,17.10
2023-05-14T21:47:21.297Z,17.00
2023-05-14T21:49:48.011Z,16.90
2023-05-14T21:52:14.816Z,16.80
2023-05-14T21:54:41.527Z,16.90
2023-05-14T21:57:08.336Z,16.90
2023-05-14T21:59:36.591Z,17.10
2023-05-14T22:02:07.202Z,17.00
2023-05-14T22:04:35.211Z,16.90
2023-05-14T22:07:02.323Z,16.80
2023-05-14T22:09:30.314Z,16.80
2023-05-14T22:11:58.345Z,16.80
2023-05-14T22:14:26.705Z,16.80
2023-05-14T22:16:53.555Z,16.70
2023-05-14T22:19:20.442Z,16.70
2023-05-14T22:21:47.182Z,16.70
2023-05-14T22:24:14.065Z,16.60
2023-05-14T22:26:40.869Z,16.60
2023-05-14T22:29:07.636Z,16.60
2023-05-14T22:31:34.818Z,16.60
2023-05-14T22:34:01.602Z,16.60
2023-05-14T22:36:28.409Z,16.70
2023-05-14T22:38:55.268Z,16.70
2023-05-14T22:41:22.186Z,16.60
2023-05-14T22:43:49.504Z,16.70
2023-05-14T22:46:16.453Z,16.60
2023-05-14T22:48:43.317Z,16.60
2023-05-14T22:51:10.129Z,16.50
2023-05-14T22:53:36.963Z,16.50
2023-05-14T22:56:03.915Z,16.50
2023-05-14T22:58:30.781Z,16.50
2023-05-14T23:00:57.748Z,16.50
2023-05-14T23:03:24.588Z,16.50
2023-05-14T23:05:52.140Z,16.50
2023-05-14T23:08:18.944Z,16.50
2023-05-14T23:10:45.724Z,16.50
2023-05-14T23:13:13.540Z,16.60
2023-05-14T23:15:40.316Z,16.60
2023-05-14T23:18:08.372Z,16.70
2023-05-14T23:20:35.210Z,15.40
2023-05-14T23:23:02.152Z,16.70
2023-05-14T23:25:29.205Z,16.70
2023-05-14T23:27:56.025Z,16.70
2023-05-14T23:30:22.844Z,16.70
2023-05-14T23:32:49.772Z,16.70
2023-05-14T23:35:16.717Z,16.70
2023-05-14T23:37:47.426Z,16.70
2023-05-14T23:40:15.718Z,16.70
2023-05-14T23:42:43.043Z,16.70
2023-05-14T23:45:10.347Z,16.60
2023-05-14T23:47:37.439Z,16.60
2023-05-14T23:50:04.702Z,16.60
2023-05-14T23:52:31.772Z,16.60
2023-05-14T23:54:58.578Z,16.60
2023-05-14T23:57:26.052Z,16.70
2023-05-14T23:59:52.951Z,16.70
